createdAt,value
2023-06-20T00:10:50.536Z,61.10
2023-06-20T00:13:59.496Z,61.10
2023-06-20T00:16:40.318Z,60.83
2023-06-20T00:19:23.940Z,61.05
2023-06-20T00:21:56.138Z,61.04
2023-06-20T00:24:29.555Z,60.79
2023-06-20T00:27:11.483Z,60.92
2023-06-20T00:29:45.838Z,61.48
2023-06-20T00:32:13.243Z,61.32
2023-06-20T00:34:50.339Z,61.58
2023-06-20T00:38:04.932Z,61.58
2023-06-20T00:41:54.087Z,61.50
2023-06-20T00:45:13.912Z,61.62
2023-06-20T00:48:27.429Z,62.17
2023-06-20T00:59:10.655Z,62.74
2023-06-20T01:02:30.944Z,62.58
2023-06-20T01:05:44.760Z,62.97
2023-06-20T01:08:33.008Z,62.92
2023-06-20T01:18:47.250Z,63.47
2023-06-20T01:20:38.291Z,62.90
2023-06-20T01:21:22.158Z,63.32
2023-06-20T01:24:26.756Z,63.56
2023-06-20T01:35:33.608Z,64.88
2023-06-20T01:38:27.081Z,64.74
2023-06-20T01:40:55.211Z,64.91
2023-06-20T01:44:09.958Z,64.87
2023-06-20T01:46:38.035Z,64.77
2023-06-20T01:49:33.031Z,64.86
2023-06-20T01:52:07.627Z,64.85
2023-06-20T01:54:40.120Z,64.78
2023-06-20T01:57:08.575Z,65.01
2023-06-20T01:59:36.616Z,64.93
2023-06-20T02:02:05.669Z,65.00
2023-06-20T02:04:39.702Z,65.06
2023-06-20T02:07:20.494Z,65.73
2023-06-20T02:09:48.618Z,65.99
2023-06-20T02:12:22.941Z,66.17
2023-06-20T02:14:52.784Z,65.73
2023-06-20T02:17:20.698Z,65.74
2023-06-20T02:20:11.453Z,65.97
2023-06-20T02:31:40.066Z,65.83
2023-06-20T02:34:09.909Z,66.29
2023-06-20T02:37:17.491Z,66.39
2023-06-20T02:39:39.615Z,65.77
2023-06-20T02:40:11.297Z,66.17
2023-06-20T02:44:07.216Z,66.39
2023-06-20T02:47:45.011Z,66.91
2023-06-20T02:50:28.529Z,66.82
2023-06-20T02:53:13.360Z,67.10
2023-06-20T02:56:37.484Z,66.98
2023-06-20T03:04:14.999Z,67.36
2023-06-20T03:06:48.574Z,67.70
2023-06-20T03:09:16.715Z,67.81
2023-06-20T03:23:05.138Z,67.73
2023-06-20T03:25:32.976Z,67.78
2023-06-20T03:27:59.946Z,67.43
2023-06-20T03:30:27.856Z,67.31
2023-06-20T03:32:56.024Z,67.03
2023-06-20T03:35:23.146Z,67.09
2023-06-20T03:37:50.373Z,67.19
2023-06-20T03:40:18.660Z,67.09
2023-06-20T03:42:47.654Z,67.02
2023-06-20T03:45:14.828Z,67.43
2023-06-20T03:47:43.110Z,67.61
2023-06-20T03:50:10.144Z,67.86
2023-06-20T03:52:38.642Z,67.69
2023-06-20T03:55:07.991Z,67.82
2023-06-20T03:57:35.213Z,67.86
2023-06-20T04:00:22.555Z,67.78
2023-06-20T04:02:49.760Z,67.87
2023-06-20T04:05:17.867Z,67.60
2023-06-20T04:07:44.826Z,67.37
2023-06-20T04:10:13.625Z,67.27
2023-06-20T04:12:41.626Z,66.81
2023-06-20T04:15:09.151Z,67.19
2023-06-20T04:17:38.858Z,67.25
2023-06-20T04:20:13.057Z,67.18
2023-06-20T04:22:49.087Z,67.28
2023-06-20T04:25:16.876Z,66.92
2023-06-20T04:27:45.780Z,66.88
2023-06-20T04:30:13.298Z,66.98
2023-06-20T04:32:43.077Z,66.88
2023-06-20T04:35:12.965Z,67.06
2023-06-20T04:37:40.997Z,66.78
2023-06-20T04:40:11.199Z,66.78
2023-06-20T04:42:39.264Z,66.89
2023-06-20T04:45:06.951Z,67.02
2023-06-20T04:47:34.404Z,66.98
2023-06-20T04:50:04.860Z,66.68
2023-06-20T04:52:32.652Z,66.81
2023-06-20T04:55:06.160Z,66.89
2023-06-20T04:57:34.021Z,66.66
2023-06-20T05:00:01.542Z,66.41
2023-06-20T05:02:28.895Z,66.56
2023-06-20T05:04:55.897Z,66.62
2023-06-20T05:07:26.228Z,66.46
2023-06-20T05:09:53.587Z,66.22
2023-06-20T05:12:20.566Z,66.04
2023-06-20T05:14:47.460Z,65.86
2023-06-20T05:17:14.388Z,65.77
2023-06-20T05:19:41.535Z,65.46
2023-06-20T05:22:08.459Z,65.00
2023-06-20T05:24:35.551Z,64.79
2023-06-20T05:27:02.798Z,65.05
2023-06-20T05:29:29.667Z,64.48
2023-06-20T05:31:56.668Z,64.36
2023-06-20T05:34:23.644Z,64.18
2023-06-20T05:36:50.537Z,64.05
2023-06-20T05:39:17.574Z,64.06
2023-06-20T05:41:44.524Z,64.11
2023-06-20T05:44:11.407Z,64.30
2023-06-20T05:46:39.350Z,64.43
2023-06-20T05:49:11.288Z,64.53
2023-06-20T05:51:38.491Z,64.65
2023-06-20T05:54:05.410Z,64.88
2023-06-20T05:56:32.302Z,64.57
2023-06-20T05:58:59.419Z,64.20
2023-06-20T06:01:26.491Z,64.47
2023-06-20T06:03:53.614Z,64.73
2023-06-20T06:06:20.695Z,64.82
2023-06-20T06:08:47.703Z,64.87
2023-06-20T06:11:14.738Z,64.58
2023-06-20T06:13:41.673Z,64.54
2023-06-20T06:16:08.873Z,64.24
2023-06-20T06:18:35.845Z,64.36
2023-06-20T06:21:02.820Z,64.12
2023-06-20T06:23:29.751Z,63.96
2023-06-20T06:25:56.885Z,63.71
2023-06-20T06:28:25.170Z,63.81
2023-06-20T06:30:52.193Z,64.00
2023-06-20T06:33:21.434Z,63.79
2023-06-20T06:35:48.702Z,63.80
2023-06-20T06:38:15.912Z,64.24
2023-06-20T06:40:44.675Z,64.11
2023-06-20T06:43:11.730Z,64.05
2023-06-20T06:45:39.140Z,63.90
2023-06-20T06:48:06.423Z,63.31
2023-06-20T06:50:33.850Z,62.97
2023-06-20T06:53:00.757Z,63.14
2023-06-20T06:55:27.921Z,62.72
2023-06-20T06:57:55.044Z,62.73
2023-06-20T07:00:21.984Z,62.74
2023-06-20T07:02:49.095Z,62.47
2023-06-20T07:05:16.349Z,62.28
2023-06-20T07:07:43.401Z,61.97
2023-06-20T07:10:11.195Z,61.79
2023-06-20T07:12:38.291Z,62.02
2023-06-20T07:15:05.670Z,62.29
2023-06-20T07:17:32.630Z,62.18
2023-06-20T07:19:59.533Z,62.43
2023-06-20T07:22:26.478Z,61.85
2023-06-20T07:24:56.877Z,62.28
2023-06-20T07:27:24.331Z,62.33
2023-06-20T07:29:51.646Z,61.98
2023-06-20T07:32:20.029Z,61.64
2023-06-20T07:34:46.978Z,61.67
2023-06-20T07:37:13.822Z,61.44
2023-06-20T07:39:44.573Z,61.32
2023-06-20T07:42:11.500Z,61.04
2023-06-20T07:44:38.454Z,61.03
2023-06-20T07:47:05.878Z,60.74
2023-06-20T07:49:33.044Z,60.52
2023-06-20T07:51:59.918Z,60.21
2023-06-20T07:54:27.123Z,60.25
2023-06-20T07:56:54.016Z,60.24
2023-06-20T07:59:21.083Z,59.81
2023-06-20T08:01:48.018Z,59.90
2023-06-20T08:04:15.288Z,59.76
2023-06-20T08:06:42.158Z,59.42
2023-06-20T08:09:09.148Z,59.37
2023-06-20T08:11:36.146Z,59.48
2023-06-20T08:14:03.133Z,59.43
2023-06-20T08:16:30.196Z,59.28
2023-06-20T08:18:57.225Z,59.10
2023-06-20T08:21:24.148Z,59.14
2023-06-20T08:23:51.115Z,58.84
2023-06-20T08:26:18.099Z,58.74
2023-06-20T08:28:44.973Z,58.96
2023-06-20T08:31:12.022Z,59.14
2023-06-20T08:33:38.950Z,59.66
2023-06-20T08:36:06.091Z,59.60
2023-06-20T08:38:33.035Z,59.60
2023-06-20T08:40:59.974Z,59.56
2023-06-20T08:43:30.310Z,59.56
2023-06-20T08:45:58.360Z,59.92
2023-06-20T08:48:25.354Z,59.93
2023-06-20T08:50:52.555Z,60.40
2023-06-20T08:53:23.480Z,60.18
2023-06-20T08:55:53.239Z,60.18
2023-06-20T08:58:20.169Z,60.28
2023-06-20T09:00:47.422Z,60.48
2023-06-20T09:03:14.745Z,60.37
2023-06-20T09:05:47.003Z,60.63
2023-06-20T09:08:15.864Z,60.31
2023-06-20T09:10:43.395Z,60.40
2023-06-20T09:13:11.979Z,60.28
2023-06-20T09:15:39.645Z,60.36
2023-06-20T09:18:08.227Z,59.66
2023-06-20T09:20:35.708Z,59.98
2023-06-20T09:23:03.365Z,60.31
2023-06-20T09:25:31.761Z,60.38
2023-06-20T09:27:59.453Z,59.94
2023-06-20T09:30:31.753Z,60.20
2023-06-20T09:33:04.583Z,60.37
2023-06-20T09:35:31.983Z,60.03
2023-06-20T09:38:03.579Z,59.70
2023-06-20T09:40:30.643Z,60.00
2023-06-20T09:42:58.435Z,59.96
2023-06-20T09:45:26.242Z,60.29
2023-06-20T09:47:53.230Z,60.73
2023-06-20T09:50:23.022Z,61.15
2023-06-20T09:53:10.764Z,60.63
2023-06-20T09:55:38.187Z,60.50
2023-06-20T09:58:08.566Z,60.26
2023-06-20T10:00:35.338Z,60.61
2023-06-20T10:03:07.830Z,61.19
2023-06-20T10:05:35.223Z,61.54
2023-06-20T10:08:02.117Z,62.48
2023-06-20T10:10:29.215Z,62.90
2023-06-20T10:12:56.777Z,63.30
2023-06-20T10:15:24.140Z,64.06
2023-06-20T10:17:51.350Z,64.58
2023-06-20T10:20:29.195Z,64.76
2023-06-20T10:22:59.725Z,65.35
2023-06-20T10:25:28.356Z,65.86
2023-06-20T10:28:00.624Z,67.20
2023-06-20T10:30:47.958Z,67.60
2023-06-20T10:33:17.769Z,68.66
2023-06-20T10:35:55.318Z,69.64
2023-06-20T10:38:22.330Z,70.51
2023-06-20T10:40:49.523Z,71.38
2023-06-20T10:43:20.569Z,72.11
2023-06-20T10:45:58.622Z,73.41
2023-06-20T10:48:26.215Z,73.80
2023-06-20T10:51:00.147Z,74.54
2023-06-20T10:53:31.417Z,75.37
2023-06-20T10:55:59.739Z,76.04
2023-06-20T10:58:32.715Z,76.51
2023-06-20T11:01:00.702Z,77.39
2023-06-20T11:03:29.223Z,77.40
2023-06-20T11:05:56.574Z,77.34
2023-06-20T11:08:26.665Z,77.60
2023-06-20T11:10:55.048Z,77.57
2023-06-20T11:13:22.472Z,77.74
2023-06-20T11:15:49.880Z,77.47
2023-06-20T11:18:17.058Z,77.70
2023-06-20T11:20:44.758Z,77.93
2023-06-20T11:23:13.913Z,77.58
2023-06-20T11:25:43.608Z,77.48
2023-06-20T11:28:12.204Z,77.59
2023-06-20T11:30:41.277Z,77.46
2023-06-20T11:33:13.213Z,77.85
2023-06-20T11:35:44.456Z,77.72
2023-06-20T11:38:13.000Z,77.58
2023-06-20T11:40:40.191Z,77.57
2023-06-20T11:43:08.232Z,77.39
2023-06-20T11:45:36.201Z,77.43
2023-06-20T11:48:14.185Z,77.84
2023-06-20T11:50:44.404Z,77.96
2023-06-20T11:53:21.274Z,77.93
2023-06-20T11:56:01.642Z,78.51
2023-06-20T11:58:29.222Z,78.23
2023-06-20T12:01:07.083Z,78.43
2023-06-20T12:03:34.042Z,78.61
2023-06-20T12:06:01.284Z,78.92
2023-06-20T12:08:33.378Z,79.52
2023-06-20T12:11:02.996Z,79.22
2023-06-20T12:13:30.436Z,79.61
2023-06-20T12:15:57.953Z,79.32
2023-06-20T12:18:24.973Z,78.87
2023-06-20T12:21:03.304Z,78.66
2023-06-20T12:23:31.714Z,78.27
2023-06-20T12:25:59.386Z,77.79
2023-06-20T12:28:26.314Z,77.81
2023-06-20T12:30:54.451Z,77.89
2023-06-20T12:33:21.516Z,77.68
2023-06-20T12:35:48.563Z,77.77
2023-06-20T12:38:15.565Z,77.31
2023-06-20T12:40:42.566Z,76.44
2023-06-20T12:43:09.518Z,76.30
2023-06-20T12:45:37.592Z,75.96
2023-06-20T12:48:04.933Z,75.24
2023-06-20T12:50:34.921Z,75.31
2023-06-20T12:53:01.899Z,74.97
2023-06-20T12:55:28.935Z,74.89
2023-06-20T12:57:55.960Z,74.99
2023-06-20T13:00:25.910Z,74.51
2023-06-20T13:02:53.292Z,74.28
2023-06-20T13:05:20.249Z,73.90
2023-06-20T13:07:48.622Z,73.57
2023-06-20T13:10:18.107Z,73.30
2023-06-20T13:12:46.867Z,73.39
2023-06-20T13:15:15.917Z,73.50
2023-06-20T13:17:44.440Z,73.70
2023-06-20T13:20:12.194Z,72.80
2023-06-20T13:22:42.077Z,71.98
2023-06-20T13:25:09.106Z,71.75
2023-06-20T13:27:36.123Z,71.26
2023-06-20T13:30:05.664Z,71.01
2023-06-20T13:32:32.738Z,71.32
2023-06-20T13:34:59.768Z,71.09
2023-06-20T13:37:26.742Z,71.34
2023-06-20T13:39:53.676Z,71.32
2023-06-20T13:42:20.600Z,71.19
2023-06-20T13:44:50.466Z,71.50
2023-06-20T13:47:17.745Z,71.04
2023-06-20T13:49:44.719Z,71.12
2023-06-20T13:52:12.074Z,70.86
2023-06-20T13:54:41.534Z,70.58
2023-06-20T13:57:08.457Z,70.67
2023-06-20T13:59:35.435Z,70.39
2023-06-20T14:02:02.410Z,70.53
2023-06-20T14:04:29.447Z,70.65
2023-06-20T14:06:56.861Z,70.48
2023-06-20T14:09:24.766Z,70.36
2023-06-20T14:11:52.257Z,70.12
2023-06-20T14:14:19.470Z,69.95
2023-06-20T14:16:46.393Z,69.54
2023-06-20T14:19:13.463Z,68.48
2023-06-20T14:21:40.467Z,68.13
2023-06-20T14:24:07.503Z,68.09
2023-06-20T14:26:34.979Z,68.15
2023-06-20T14:29:01.900Z,68.35
2023-06-20T14:31:30.017Z,68.42
2023-06-20T14:33:58.893Z,68.15
2023-06-20T14:36:26.524Z,67.87
2023-06-20T14:38:53.304Z,66.91
2023-06-20T14:41:20.174Z,66.97
2023-06-20T14:43:47.330Z,67.11
2023-06-20T14:46:14.281Z,67.26
2023-06-20T14:48:41.270Z,67.09
2023-06-20T14:51:08.208Z,67.59
2023-06-20T14:53:35.150Z,67.93
2023-06-20T14:56:02.156Z,67.81
2023-06-20T14:58:29.118Z,67.72
2023-06-20T15:00:58.365Z,67.18
2023-06-20T15:03:26.121Z,67.00
2023-06-20T15:05:54.752Z,66.57
2023-06-20T15:08:23.155Z,66.59
2023-06-20T15:10:50.326Z,66.51
2023-06-20T15:13:17.673Z,66.17
2023-06-20T15:15:44.607Z,66.46
2023-06-20T15:18:12.601Z,66.25
2023-06-20T15:20:39.816Z,66.46
2023-06-20T15:23:06.770Z,66.69
2023-06-20T15:25:33.605Z,66.75
2023-06-20T15:28:00.488Z,66.88
2023-06-20T15:30:29.305Z,67.00
2023-06-20T15:32:56.537Z,67.31
2023-06-20T15:35:23.516Z,66.76
2023-06-20T15:37:50.674Z,66.66
2023-06-20T15:40:20.241Z,66.65
2023-06-20T15:42:47.790Z,66.46
2023-06-20T15:45:14.827Z,65.75
2023-06-20T15:47:43.898Z,65.78
2023-06-20T15:50:11.379Z,65.57
2023-06-20T15:52:39.701Z,65.39
2023-06-20T15:55:09.434Z,64.60
2023-06-20T15:57:38.277Z,64.02
2023-06-20T16:00:11.020Z,63.96
2023-06-20T16:02:39.891Z,63.17
2023-06-20T16:05:07.408Z,62.69
2023-06-20T16:07:34.989Z,62.23
2023-06-20T16:10:02.046Z,61.57
2023-06-20T16:12:29.164Z,61.46
2023-06-20T16:14:58.238Z,61.94
2023-06-20T16:17:25.616Z,62.07
2023-06-20T16:19:53.075Z,61.07
2023-06-20T16:22:19.957Z,61.14
2023-06-20T16:24:47.061Z,60.85
2023-06-20T16:27:14.176Z,60.83
2023-06-20T16:29:41.302Z,60.54
2023-06-20T16:32:08.436Z,60.17
2023-06-20T16:34:35.674Z,60.44
2023-06-20T16:37:03.786Z,59.89
2023-06-20T16:39:31.847Z,60.15
2023-06-20T16:41:59.699Z,60.64
2023-06-20T16:44:27.135Z,60.46
2023-06-20T16:46:55.542Z,60.68
2023-06-20T16:49:22.619Z,61.02
2023-06-20T16:51:49.583Z,61.16
2023-06-20T16:54:16.620Z,61.22
2023-06-20T16:56:43.531Z,60.92
2023-06-20T16:59:10.523Z,60.94
2023-06-20T17:01:38.359Z,61.03
2023-06-20T17:04:06.470Z,61.38
2023-06-20T17:06:34.014Z,61.11
2023-06-20T17:09:01.011Z,61.25
2023-06-20T17:11:28.088Z,61.28
2023-06-20T17:13:55.368Z,61.76
2023-06-20T17:16:22.506Z,61.62
2023-06-20T17:18:49.615Z,61.64
2023-06-20T17:21:16.590Z,61.47
2023-06-20T17:23:43.636Z,61.86
2023-06-20T17:26:11.561Z,62.03
2023-06-20T17:28:40.009Z,62.06
2023-06-20T17:31:07.073Z,62.37
2023-06-20T17:33:34.290Z,62.89
2023-06-20T17:36:01.153Z,62.73
2023-06-20T17:38:28.128Z,63.08
2023-06-20T17:40:55.576Z,63.11
2023-06-20T17:43:23.101Z,63.23
2023-06-20T17:45:50.542Z,63.51
2023-06-20T17:48:17.540Z,63.24
2023-06-20T17:50:44.425Z,63.50
2023-06-20T17:53:11.511Z,63.28
2023-06-20T17:55:38.434Z,63.54
2023-06-20T17:58:05.446Z,63.45
2023-06-20T18:00:32.403Z,63.86
2023-06-20T18:03:00.493Z,63.94
2023-06-20T18:05:27.932Z,64.22
2023-06-20T18:07:54.828Z,64.10
2023-06-20T18:10:26.384Z,64.66
2023-06-20T18:12:53.709Z,64.83
2023-06-20T18:15:21.328Z,64.68
2023-06-20T18:17:48.368Z,65.13
2023-06-20T18:20:16.731Z,65.22
2023-06-20T18:22:44.260Z,65.50
2023-06-20T18:25:11.342Z,65.47
2023-06-20T18:27:38.566Z,65.72
2023-06-20T18:30:06.568Z,65.95
2023-06-20T18:32:34.266Z,65.55
2023-06-20T18:35:01.267Z,65.26
2023-06-20T18:37:28.271Z,65.43
2023-06-20T18:39:55.254Z,64.96
2023-06-20T18:42:22.232Z,65.39
2023-06-20T18:44:49.148Z,65.24
2023-06-20T18:47:16.209Z,65.47
2023-06-20T18:49:43.202Z,65.47
2023-06-20T18:52:10.200Z,65.85
2023-06-20T18:54:38.065Z,66.32
2023-06-20T18:57:06.419Z,66.51
2023-06-20T18:59:33.818Z,66.95
2023-06-20T19:02:00.932Z,66.73
2023-06-20T19:04:29.837Z,66.92
2023-06-20T19:06:57.080Z,67.32
2023-06-20T19:09:30.660Z,67.80
2023-06-20T19:11:57.936Z,67.93
2023-06-20T19:14:24.960Z,68.50
2023-06-20T19:16:52.090Z,68.60
2023-06-20T19:19:19.229Z,69.09
2023-06-20T19:21:46.216Z,69.24
2023-06-20T19:24:15.104Z,69.62
2023-06-20T19:26:43.694Z,69.55
2023-06-20T19:29:21.902Z,69.73
2023-06-20T19:31:49.035Z,70.42
2023-06-20T19:34:16.210Z,70.88
2023-06-20T19:36:43.643Z,71.06
2023-06-20T19:39:11.053Z,71.36
2023-06-20T19:41:38.055Z,71.54
2023-06-20T19:44:05.277Z,71.71
2023-06-20T19:46:32.320Z,72.14
2023-06-20T19:49:00.141Z,72.27
2023-06-20T19:51:32.716Z,72.62
2023-06-20T19:54:00.380Z,72.87
2023-06-20T19:56:27.390Z,73.47
2023-06-20T19:58:54.300Z,73.57
2023-06-20T20:01:21.285Z,73.36
2023-06-20T20:03:48.481Z,73.50
2023-06-20T20:06:15.835Z,73.86
2023-06-20T20:08:43.068Z,73.99
2023-06-20T20:11:10.165Z,73.98
2023-06-20T20:13:37.108Z,74.06
2023-06-20T20:16:04.370Z,73.98
2023-06-20T20:18:31.694Z,74.28
2023-06-20T20:20:58.904Z,74.31
2023-06-20T20:23:42.042Z,74.36
2023-06-20T20:26:09.580Z,74.86
2023-06-20T20:28:37.799Z,74.93
2023-06-20T20:31:04.747Z,74.89
2023-06-20T20:33:32.059Z,75.42
2023-06-20T20:35:59.103Z,75.40
2023-06-20T20:38:25.951Z,75.44
2023-06-20T20:40:53.025Z,75.74
2023-06-20T20:43:24.102Z,75.84
2023-06-20T20:45:54.901Z,75.52
2023-06-20T20:48:22.801Z,75.93
2023-06-20T20:50:49.738Z,76.10
2023-06-20T20:53:16.653Z,76.09
2023-06-20T20:55:43.613Z,76.51
2023-06-20T20:58:10.746Z,76.52
2023-06-20T21:00:37.604Z,76.68
2023-06-20T21:03:06.526Z,76.59
2023-06-20T21:05:33.767Z,76.75
2023-06-20T21:08:00.975Z,76.62
2023-06-20T21:10:30.540Z,76.95
2023-06-20T21:12:57.497Z,76.90
2023-06-20T21:15:24.421Z,77.08
2023-06-20T21:17:51.428Z,77.11
2023-06-20T21:20:18.377Z,77.50
2023-06-20T21:22:45.390Z,77.88
2023-06-20T21:25:12.286Z,77.49
2023-06-20T21:27:39.208Z,77.69
2023-06-20T21:30:07.686Z,77.62
2023-06-20T21:32:34.708Z,77.45
2023-06-20T21:35:01.863Z,77.68
2023-06-20T21:37:29.684Z,77.99
2023-06-20T21:39:57.157Z,77.84
2023-06-20T21:42:24.082Z,77.76
2023-06-20T21:44:50.955Z,78.04
2023-06-20T21:47:17.792Z,78.62
2023-06-20T21:49:44.775Z,78.42
2023-06-20T21:52:11.773Z,78.56
2023-06-20T21:54:38.668Z,78.58
2023-06-20T21:57:06.025Z,78.53
2023-06-20T21:59:35.739Z,78.88
2023-06-20T22:02:03.106Z,78.57
2023-06-20T22:04:30.038Z,78.74
2023-06-20T22:06:56.888Z,78.67
2023-06-20T22:09:23.740Z,78.96
2023-06-20T22:11:50.664Z,78.82
2023-06-20T22:14:17.622Z,79.29
2023-06-20T22:16:44.468Z,79.26
2023-06-20T22:19:11.412Z,79.23
2023-06-20T22:21:38.313Z,79.31
2023-06-20T22:24:05.823Z,79.40
2023-06-20T22:26:32.779Z,79.45
2023-06-20T22:28:59.771Z,79.48
2023-06-20T22:31:26.682Z,79.54
2023-06-20T22:33:53.829Z,79.37
2023-06-20T22:36:21.365Z,79.58
2023-06-20T22:38:48.545Z,79.52
2023-06-20T22:41:28.827Z,79.58
2023-06-20T22:44:31.296Z,79.84
2023-06-20T22:47:05.870Z,79.55
2023-06-20T22:49:52.252Z,79.88
2023-06-20T22:52:26.435Z,79.81
2023-06-20T22:54:53.902Z,80.42
2023-06-20T22:57:20.996Z,80.35
2023-06-20T22:59:48.255Z,80.50
2023-06-20T23:02:15.377Z,80.46
2023-06-20T23:04:42.568Z,80.76
2023-06-20T23:07:09.592Z,80.65
2023-06-20T23:09:36.614Z,80.66
2023-06-20T23:12:05.473Z,80.57
2023-06-20T23:14:33.031Z,80.67
2023-06-20T23:17:01.126Z,80.55
2023-06-20T23:19:33.995Z,80.63
2023-06-20T23:22:01.122Z,80.31
2023-06-20T23:24:28.665Z,80.84
2023-06-20T23:26:56.303Z,80.89
2023-06-20T23:29:23.540Z,81.06
2023-06-20T23:31:53.357Z,80.73
2023-06-20T23:34:20.876Z,80.54
2023-06-20T23:36:51.940Z,80.44
2023-06-20T23:39:18.973Z,80.47
2023-06-20T23:41:46.099Z,80.06
2023-06-20T23:44:15.360Z,80.58
2023-06-20T23:46:48.060Z,80.17
2023-06-20T23:49:15.174Z,80.19
2023-06-20T23:51:42.223Z,80.46
2023-06-20T23:54:09.278Z,80.44
2023-06-20T23:56:36.936Z,80.18
2023-06-20T23:59:06.042Z,79.88
